Time;durP1;ratioP1;P1;durP2;ratioP2;P2;SDS_P1;SDS_P2;PMS_P1;PMS_P2;Temp;Humidity;BMP_temperature;BMP_pressure;BME280_temperature;BME280_humidity;BME280_pressure;Samples;Min_cycle;Max_cycle;Signal;HPM_P1;HPM_P2
2022/04/16 00:01:47;;;;;;;25.42;16.60;;;;;;;;;;5071846;28;20040;-84
2022/04/16 00:04:15;;;;;;;22.05;16.55;;;;;;;;;;5065885;28;20040;-85
2022/04/16 00:06:42;;;;;;;25.13;16.08;;;;;;;;;;5047023;28;20115;-84
2022/04/16 00:09:08;;;;;;;22.42;15.25;;;;;;;;;;5058945;28;20039;-85
2022/04/16 00:11:41;;;;;;;20.83;15.85;;;;;;;;;;5062976;28;20111;-85
2022/04/16 00:14:07;;;;;;;25.45;16.90;;;;;;;;;;5043508;28;20032;-85
2022/04/16 00:16:33;;;;;;;28.50;18.58;;;;;;;;;;5044610;28;20028;-84
2022/04/16 00:19:08;;;;;;;26.15;17.60;;;;;;;;;;5051122;28;20081;-83
2022/04/16 00:21:35;;;;;;;24.83;17.45;;;;;;;;;;5062787;28;20044;-86
2022/04/16 00:24:08;;;;;;;28.95;18.95;;;;;;;;;;5065876;28;20066;-84
2022/04/16 00:26:40;;;;;;;28.73;19.40;;;;;;;;;;5065039;28;20033;-84
2022/04/16 00:29:06;;;;;;;26.75;18.75;;;;;;;;;;5063642;28;20120;-84
2022/04/16 00:31:32;;;;;;;25.90;18.58;;;;;;;;;;5070189;28;20132;-86
2022/04/16 00:34:01;;;;;;;30.10;18.88;;;;;;;;;;5071181;28;20025;-82
2022/04/16 00:36:28;;;;;;;26.73;19.70;;;;;;;;;;5048978;28;20045;-85
2022/04/16 00:38:55;;;;;;;29.23;19.33;;;;;;;;;;5049019;28;20156;-85
2022/04/16 00:41:23;;;;;;;25.63;19.08;;;;;;;;;;5064691;28;20678;-83
2022/04/16 00:43:52;;;;;;;24.38;18.35;;;;;;;;;;5067663;28;20413;-83
2022/04/16 00:46:19;;;;;;;27.25;19.45;;;;;;;;;;5047727;28;20394;-83
2022/04/16 00:48:46;;;;;;;27.70;18.73;;;;;;;;;;5046876;28;20075;-83
2022/04/16 00:51:13;;;;;;;26.45;18.67;;;;;;;;;;5048074;28;20035;-84
2022/04/16 00:53:41;;;;;;;30.80;20.33;;;;;;;;;;5064061;28;20060;-83
2022/04/16 00:56:26;;;;;;;27.95;19.83;;;;;;;;;;4952812;28;2431082;-83
2022/04/16 00:58:52;;;;;;;29.00;20.67;;;;;;;;;;5065684;28;20037;-85
2022/04/16 01:01:18;;;;;;;25.77;19.63;;;;;;;;;;5063552;28;20025;-85
2022/04/16 01:03:45;;;;;;;27.88;20.48;;;;;;;;;;5062365;28;20072;-83
2022/04/16 01:06:15;;;;;;;30.05;20.70;;;;;;;;;;5064277;28;20072;-83
2022/04/16 01:08:45;;;;;;;29.33;20.30;;;;;;;;;;5063684;28;20041;-83
2022/04/16 01:11:11;;;;;;;31.48;19.55;;;;;;;;;;5064274;28;20044;-84
2022/04/16 01:13:38;;;;;;;27.05;20.35;;;;;;;;;;5065816;28;20055;-84
2022/04/16 01:16:07;;;;;;;31.52;20.92;;;;;;;;;;5069211;28;20047;-84
2022/04/16 01:18:34;;;;;;;28.23;21.75;;;;;;;;;;5046604;28;20040;-82
2022/04/16 01:21:01;;;;;;;34.28;21.58;;;;;;;;;;5071182;28;20104;-84
2022/04/16 01:23:28;;;;;;;35.17;21.80;;;;;;;;;;5057007;28;20475;-83
2022/04/16 01:25:56;;;;;;;33.25;21.88;;;;;;;;;;5067544;28;20230;-83
2022/04/16 01:28:23;;;;;;;29.42;21.33;;;;;;;;;;5069545;28;20364;-83
2022/04/16 01:30:49;;;;;;;29.73;20.98;;;;;;;;;;5059039;28;20056;-84
2022/04/16 01:33:17;;;;;;;36.10;23.55;;;;;;;;;;5062745;28;20183;-84
2022/04/16 01:35:43;;;;;;;29.52;22.23;;;;;;;;;;5058037;28;20487;-84
2022/04/16 01:38:09;;;;;;;32.80;22.02;;;;;;;;;;5069834;28;20016;-85
2022/04/16 01:40:35;;;;;;;38.55;24.05;;;;;;;;;;5045246;28;20025;-84
2022/04/16 01:43:01;;;;;;;39.25;24.40;;;;;;;;;;5035453;28;20091;-85
2022/04/16 01:45:28;;;;;;;35.08;24.10;;;;;;;;;;5068336;28;20024;-84
2022/04/16 01:47:54;;;;;;;32.58;22.90;;;;;;;;;;5066263;28;20029;-84
2022/04/16 01:50:20;;;;;;;34.78;24.42;;;;;;;;;;5062349;28;20028;-85
2022/04/16 01:52:47;;;;;;;34.85;23.95;;;;;;;;;;5066078;28;20021;-84
2022/04/16 01:55:13;;;;;;;34.25;23.83;;;;;;;;;;5064957;28;20049;-84
2022/04/16 01:57:39;;;;;;;38.65;23.88;;;;;;;;;;5066491;28;20498;-83
2022/04/16 02:00:10;;;;;;;36.70;25.73;;;;;;;;;;5068932;28;20013;-84
2022/04/16 02:02:36;;;;;;;39.58;25.60;;;;;;;;;;5047534;28;20068;-83
2022/04/16 02:05:03;;;;;;;39.58;25.02;;;;;;;;;;5072330;28;20055;-83
2022/04/16 02:07:29;;;;;;;39.33;26.95;;;;;;;;;;5046845;28;20029;-83
2022/04/16 02:09:55;;;;;;;46.75;27.77;;;;;;;;;;5049143;28;20040;-83
2022/04/16 02:12:21;;;;;;;50.47;27.33;;;;;;;;;;5042948;28;20032;-83
2022/04/16 02:14:47;;;;;;;42.55;28.00;;;;;;;;;;5062538;28;20166;-83
2022/04/16 02:17:13;;;;;;;43.70;28.05;;;;;;;;;;5057387;28;20036;-83
2022/04/16 02:19:39;;;;;;;45.75;29.85;;;;;;;;;;5063365;28;20064;-84
2022/04/16 02:22:06;;;;;;;47.42;29.38;;;;;;;;;;5073054;28;20100;-83
2022/04/16 02:24:32;;;;;;;50.00;28.90;;;;;;;;;;5073165;28;20028;-84
2022/04/16 02:26:58;;;;;;;46.03;28.75;;;;;;;;;;5066570;28;20493;-84
2022/04/16 02:29:24;;;;;;;46.17;30.48;;;;;;;;;;5051719;28;20040;-84
2022/04/16 02:31:50;;;;;;;46.05;29.27;;;;;;;;;;5047189;28;20032;-83
2022/04/16 02:34:18;;;;;;;48.95;29.58;;;;;;;;;;5066628;28;20095;-83
2022/04/16 02:36:44;;;;;;;50.25;30.23;;;;;;;;;;5070428;28;20021;-83
2022/04/16 02:39:10;;;;;;;48.95;30.55;;;;;;;;;;5073534;28;20036;-85
2022/04/16 02:41:36;;;;;;;49.47;30.77;;;;;;;;;;5069315;28;20040;-84
2022/04/16 02:44:02;;;;;;;49.17;30.35;;;;;;;;;;5055168;28;20013;-84
2022/04/16 02:49:13;;;;;;;49.17;30.50;;;;;;;;;;5060853;28;20127;-85
2022/04/16 02:51:39;;;;;;;49.90;30.48;;;;;;;;;;5061427;28;20032;-85
2022/04/16 02:54:05;;;;;;;49.63;31.13;;;;;;;;;;5065984;28;20031;-85
2022/04/16 02:56:34;;;;;;;55.08;30.60;;;;;;;;;;5058827;28;20135;-84
2022/04/16 02:59:00;;;;;;;51.95;30.70;;;;;;;;;;5064891;28;20219;-85
2022/04/16 03:01:26;;;;;;;54.65;32.55;;;;;;;;;;5069521;28;20235;-84
2022/04/16 03:03:54;;;;;;;55.58;32.40;;;;;;;;;;5068087;28;20053;-84
2022/04/16 03:06:21;;;;;;;57.58;33.35;;;;;;;;;;5063671;28;20067;-84
2022/04/16 03:08:48;;;;;;;52.85;31.90;;;;;;;;;;5050193;28;20037;-84
2022/04/16 03:11:14;;;;;;;55.92;33.47;;;;;;;;;;5072907;28;20020;-84
2022/04/16 03:13:40;;;;;;;68.53;35.17;;;;;;;;;;5062298;28;20029;-84
2022/04/16 03:18:51;;;;;;;58.58;32.55;;;;;;;;;;5075804;28;20051;-84
2022/04/16 03:21:17;;;;;;;57.30;33.22;;;;;;;;;;5048356;28;20017;-84
2022/04/16 03:23:55;;;;;;;54.40;31.63;;;;;;;;;;5069578;28;20052;-84
2022/04/16 03:26:21;;;;;;;58.83;32.90;;;;;;;;;;5067246;28;20093;-85
2022/04/16 03:28:47;;;;;;;62.17;32.92;;;;;;;;;;5062930;28;20462;-83
2022/04/16 03:31:13;;;;;;;66.47;33.80;;;;;;;;;;5042685;28;20607;-84
2022/04/16 03:33:40;;;;;;;58.60;32.63;;;;;;;;;;5066405;28;20063;-83
2022/04/16 03:36:07;;;;;;;57.47;31.73;;;;;;;;;;5045719;28;20036;-85
2022/04/16 03:38:36;;;;;;;62.28;32.67;;;;;;;;;;5064406;28;20044;-85
2022/04/16 03:41:02;;;;;;;59.22;33.38;;;;;;;;;;5052822;28;20041;-85
2022/04/16 03:43:35;;;;;;;69.05;33.80;;;;;;;;;;5069412;28;20037;-85
2022/04/16 03:46:04;;;;;;;59.88;33.55;;;;;;;;;;5053850;28;20049;-85
2022/04/16 03:48:30;;;;;;;60.85;32.78;;;;;;;;;;5072596;28;20101;-85
2022/04/16 03:50:57;;;;;;;67.75;36.70;;;;;;;;;;5070933;28;20033;-83
2022/04/16 03:53:23;;;;;;;63.90;35.38;;;;;;;;;;5053056;28;20037;-85
2022/04/16 04:01:18;;;;;;;64.47;35.95;;;;;;;;;;5058332;28;20059;-84
2022/04/16 04:03:47;;;;;;;68.45;36.03;;;;;;;;;;5038359;28;20096;-84
2022/04/16 04:06:14;;;;;;;71.68;37.95;;;;;;;;;;5051389;28;20490;-84
2022/04/16 04:08:41;;;;;;;74.72;36.67;;;;;;;;;;5035407;28;20030;-84
2022/04/16 04:11:07;;;;;;;68.35;36.25;;;;;;;;;;5028691;28;20033;-85
2022/04/16 04:13:33;;;;;;;65.90;36.67;;;;;;;;;;5051011;28;20021;-84
2022/04/16 04:15:59;;;;;;;70.50;36.33;;;;;;;;;;5048338;28;20119;-84
2022/04/16 04:18:26;;;;;;;68.25;36.75;;;;;;;;;;5051458;28;20055;-86
2022/04/16 04:21:00;;;;;;;69.68;36.28;;;;;;;;;;5048495;28;20064;-84
2022/04/16 04:23:26;;;;;;;72.75;38.38;;;;;;;;;;5045592;28;20036;-85
2022/04/16 04:25:52;;;;;;;73.85;38.67;;;;;;;;;;5028594;28;20037;-85
2022/04/16 04:28:20;;;;;;;79.00;39.67;;;;;;;;;;5053170;28;20085;-85
2022/04/16 04:30:46;;;;;;;69.72;38.85;;;;;;;;;;5040191;28;20033;-82
2022/04/16 04:33:14;;;;;;;83.47;40.15;;;;;;;;;;5052981;28;20076;-84
2022/04/16 04:35:42;;;;;;;77.68;39.25;;;;;;;;;;5052868;28;20143;-85
2022/04/16 04:38:08;;;;;;;81.35;40.33;;;;;;;;;;5050546;28;20112;-85
2022/04/16 04:40:41;;;;;;;77.72;40.95;;;;;;;;;;5045888;28;20064;-84
2022/04/16 04:43:07;;;;;;;77.20;40.22;;;;;;;;;;5026209;28;20187;-84
2022/04/16 04:45:33;;;;;;;73.45;39.65;;;;;;;;;;5055921;28;20117;-83
2022/04/16 04:48:00;;;;;;;71.80;38.83;;;;;;;;;;5049150;28;20033;-84
2022/04/16 04:50:26;;;;;;;76.88;42.22;;;;;;;;;;5052214;28;20092;-81
2022/04/16 04:52:53;;;;;;;75.95;40.85;;;;;;;;;;5046773;28;20055;-85
2022/04/16 04:55:19;;;;;;;75.68;40.28;;;;;;;;;;5031802;28;20049;-84
2022/04/16 04:57:45;;;;;;;81.75;41.33;;;;;;;;;;5050413;28;20029;-83
2022/04/16 05:00:14;;;;;;;75.55;41.25;;;;;;;;;;5043773;28;20077;-85
2022/04/16 05:02:45;;;;;;;80.88;41.80;;;;;;;;;;5051635;28;20033;-84
2022/04/16 05:05:11;;;;;;;57.90;30.83;;;;;;;;;;5049622;28;20045;-84
2022/04/16 05:07:37;;;;;;;83.72;42.92;;;;;;;;;;5045585;28;20512;-83
2022/04/16 05:10:04;;;;;;;77.35;40.97;;;;;;;;;;5041774;28;20052;-83
2022/04/16 05:12:32;;;;;;;77.25;40.97;;;;;;;;;;5041054;28;20084;-84
2022/04/16 05:15:01;;;;;;;79.75;43.58;;;;;;;;;;5025026;28;20032;-82
2022/04/16 05:17:27;;;;;;;77.28;42.00;;;;;;;;;;5027111;28;20120;-84
2022/04/16 05:19:53;;;;;;;81.25;41.22;;;;;;;;;;5050228;28;20037;-83
2022/04/16 05:22:19;;;;;;;87.75;42.72;;;;;;;;;;5048468;28;20021;-84
2022/04/16 05:24:53;;;;;;;76.90;42.15;;;;;;;;;;5045206;28;20127;-85
2022/04/16 05:27:19;;;;;;;78.78;41.78;;;;;;;;;;5050039;28;20056;-85
2022/04/16 05:29:56;;;;;;;64.75;39.03;;;;;;;;;;5047432;28;20096;-83
2022/04/16 05:32:23;;;;;;;62.10;37.47;;;;;;;;;;5047190;28;20456;-82
2022/04/16 05:34:50;;;;;;;69.22;35.92;;;;;;;;;;5051660;28;20043;-82
2022/04/16 05:37:17;;;;;;;53.53;32.75;;;;;;;;;;5046630;28;20063;-84
2022/04/16 05:39:46;;;;;;;51.35;33.22;;;;;;;;;;5031504;28;20030;-82
2022/04/16 05:42:15;;;;;;;48.88;30.95;;;;;;;;;;5030463;28;20060;-82
2022/04/16 05:44:41;;;;;;;45.75;30.00;;;;;;;;;;5031696;28;20016;-83
2022/04/16 05:47:07;;;;;;;39.83;27.75;;;;;;;;;;5044258;28;20033;-83
2022/04/16 05:49:33;;;;;;;39.30;28.08;;;;;;;;;;5027262;28;20043;-85
2022/04/16 05:51:59;;;;;;;40.55;26.02;;;;;;;;;;5045193;28;20059;-81
2022/04/16 05:54:25;;;;;;;42.28;26.25;;;;;;;;;;5023376;28;20045;-85
2022/04/16 05:56:51;;;;;;;39.40;26.45;;;;;;;;;;5059652;28;20045;-82
2022/04/16 05:59:18;;;;;;;37.08;26.00;;;;;;;;;;5057285;28;20033;-81
2022/04/16 06:01:45;;;;;;;37.70;26.92;;;;;;;;;;5058539;28;20017;-82
2022/04/16 06:04:11;;;;;;;41.35;25.70;;;;;;;;;;5060274;28;20032;-81
2022/04/16 06:06:37;;;;;;;40.63;26.95;;;;;;;;;;5055950;28;20542;-82
2022/04/16 06:09:03;;;;;;;41.10;26.98;;;;;;;;;;5039188;28;20159;-83
2022/04/16 06:11:31;;;;;;;41.95;26.65;;;;;;;;;;5059574;28;20051;-81
2022/04/16 06:13:57;;;;;;;38.17;26.90;;;;;;;;;;5064651;28;20028;-79
2022/04/16 06:16:23;;;;;;;39.83;26.17;;;;;;;;;;5067882;28;20017;-80
2022/04/16 06:18:49;;;;;;;38.08;25.60;;;;;;;;;;5064122;28;20059;-81
2022/04/16 06:21:15;;;;;;;42.22;26.95;;;;;;;;;;5061698;28;20079;-80
2022/04/16 06:23:41;;;;;;;39.67;26.73;;;;;;;;;;5073496;28;20040;-80
2022/04/16 06:26:07;;;;;;;40.10;27.85;;;;;;;;;;5065241;28;20446;-81
2022/04/16 06:28:33;;;;;;;37.53;26.92;;;;;;;;;;5066972;28;20041;-80
2022/04/16 06:30:59;;;;;;;40.22;26.33;;;;;;;;;;5068243;28;20051;-80
2022/04/16 06:33:25;;;;;;;41.72;26.98;;;;;;;;;;5059913;28;20489;-84
2022/04/16 06:35:51;;;;;;;42.15;28.08;;;;;;;;;;5040112;28;20049;-81
2022/04/16 06:38:17;;;;;;;38.95;27.25;;;;;;;;;;5058833;28;20025;-80
2022/04/16 06:40:43;;;;;;;43.60;28.80;;;;;;;;;;5053029;28;20494;-78
2022/04/16 06:43:09;;;;;;;40.58;28.50;;;;;;;;;;5053145;28;20040;-79
2022/04/16 06:45:35;;;;;;;44.50;29.25;;;;;;;;;;5075737;28;20037;-78
2022/04/16 06:48:01;;;;;;;46.15;29.65;;;;;;;;;;5060856;28;20066;-77
2022/04/16 06:50:27;;;;;;;45.75;30.42;;;;;;;;;;5056947;28;20695;-78
2022/04/16 06:52:56;;;;;;;52.17;31.15;;;;;;;;;;5071453;28;20056;-79
2022/04/16 06:55:23;;;;;;;45.33;30.08;;;;;;;;;;5058800;28;20057;-87
2022/04/16 06:57:49;;;;;;;47.08;29.88;;;;;;;;;;5054752;28;20033;-81
2022/04/16 07:00:15;;;;;;;43.08;29.25;;;;;;;;;;5047324;28;20053;-78
2022/04/16 07:02:41;;;;;;;48.15;29.38;;;;;;;;;;5046250;28;20172;-78
2022/04/16 07:05:07;;;;;;;43.75;29.70;;;;;;;;;;5041920;28;20129;-77
2022/04/16 07:07:33;;;;;;;49.55;32.00;;;;;;;;;;5051210;28;20033;-77
2022/04/16 07:09:59;;;;;;;45.83;30.42;;;;;;;;;;5043184;28;20041;-78
2022/04/16 07:12:25;;;;;;;48.08;31.58;;;;;;;;;;5043291;28;20098;-77
2022/04/16 07:14:51;;;;;;;48.50;31.63;;;;;;;;;;5048752;28;20907;-77
2022/04/16 07:17:18;;;;;;;49.22;31.90;;;;;;;;;;5051143;28;20167;-77
2022/04/16 07:19:44;;;;;;;50.13;32.65;;;;;;;;;;5043385;28;20044;-80
2022/04/16 07:22:10;;;;;;;48.72;31.85;;;;;;;;;;5044218;28;20060;-77
2022/04/16 07:24:38;;;;;;;49.42;31.75;;;;;;;;;;5048039;28;20030;-79
2022/04/16 07:27:04;;;;;;;48.22;31.10;;;;;;;;;;5059884;28;20028;-78
2022/04/16 07:29:30;;;;;;;47.17;30.98;;;;;;;;;;5036459;28;20040;-78
2022/04/16 07:31:57;;;;;;;46.83;31.83;;;;;;;;;;5050449;28;20057;-77
2022/04/16 07:34:25;;;;;;;48.83;30.38;;;;;;;;;;5058892;28;20613;-82
2022/04/16 07:36:51;;;;;;;46.10;30.58;;;;;;;;;;5075464;28;20141;-81
2022/04/16 07:39:17;;;;;;;42.08;28.65;;;;;;;;;;5073417;28;20017;-77
2022/04/16 07:41:43;;;;;;;43.45;29.88;;;;;;;;;;5045033;28;20052;-77
2022/04/16 07:44:10;;;;;;;43.88;29.10;;;;;;;;;;5063081;28;20049;-79
2022/04/16 07:46:36;;;;;;;42.35;28.73;;;;;;;;;;5058575;28;20460;-78
2022/04/16 07:49:03;;;;;;;51.60;29.02;;;;;;;;;;5064797;28;20041;-78
2022/04/16 07:51:32;;;;;;;43.83;29.55;;;;;;;;;;5062035;28;20022;-80
2022/04/16 07:53:58;;;;;;;42.20;27.25;;;;;;;;;;5059332;28;20018;-79
2022/04/16 07:56:24;;;;;;;41.63;28.15;;;;;;;;;;5058193;28;20060;-80
2022/04/16 07:58:51;;;;;;;41.38;25.88;;;;;;;;;;5088697;28;20020;-79
2022/04/16 08:01:17;;;;;;;39.67;26.88;;;;;;;;;;5072246;28;20092;-78
2022/04/16 08:03:44;;;;;;;38.92;26.08;;;;;;;;;;5072762;28;20033;-85
2022/04/16 08:06:10;;;;;;;38.88;26.45;;;;;;;;;;5072394;28;20084;-87
2022/04/16 08:08:36;;;;;;;36.95;24.70;;;;;;;;;;5086217;28;20052;-84
2022/04/16 08:11:02;;;;;;;35.70;23.10;;;;;;;;;;5059184;28;20051;-81
2022/04/16 08:13:28;;;;;;;39.17;23.08;;;;;;;;;;5066070;28;20040;-83
2022/04/16 08:15:54;;;;;;;35.13;24.33;;;;;;;;;;5063727;28;20028;-85
2022/04/16 08:18:20;;;;;;;33.47;22.85;;;;;;;;;;5071987;28;20401;-83
2022/04/16 08:20:46;;;;;;;26.95;20.70;;;;;;;;;;5054632;28;20040;-82
2022/04/16 08:23:13;;;;;;;36.85;22.58;;;;;;;;;;5054474;28;20136;-83
2022/04/16 08:28:05;;;;;;;29.40;21.75;;;;;;;;;;5054241;28;20043;-83
2022/04/16 08:30:31;;;;;;;26.73;20.20;;;;;;;;;;5053581;28;20351;-84
2022/04/16 08:32:58;;;;;;;28.55;20.52;;;;;;;;;;5055142;28;20084;-82
2022/04/16 08:35:24;;;;;;;28.50;19.73;;;;;;;;;;5049298;28;20143;-82
2022/04/16 08:37:50;;;;;;;27.88;20.17;;;;;;;;;;5077904;28;20033;-85
2022/04/16 08:40:17;;;;;;;27.02;19.25;;;;;;;;;;5061845;28;20507;-83
2022/04/16 08:42:44;;;;;;;26.70;18.60;;;;;;;;;;5069252;28;20482;-87
2022/04/16 08:45:11;;;;;;;24.92;17.90;;;;;;;;;;5075762;28;20032;-83
2022/04/16 08:47:38;;;;;;;25.40;18.10;;;;;;;;;;5082038;28;20028;-84
2022/04/16 08:50:05;;;;;;;23.00;17.20;;;;;;;;;;5082891;28;20092;-83
2022/04/16 08:52:32;;;;;;;28.40;17.55;;;;;;;;;;5070916;28;20055;-84
2022/04/16 08:54:58;;;;;;;25.05;17.63;;;;;;;;;;5058866;28;20118;-84
2022/04/16 08:57:24;;;;;;;24.25;17.77;;;;;;;;;;5026714;28;20032;-84
2022/04/16 08:59:52;;;;;;;23.95;17.48;;;;;;;;;;5061454;28;20033;-83
2022/04/16 09:02:19;;;;;;;27.30;18.45;;;;;;;;;;5055056;28;20044;-82
2022/04/16 09:04:45;;;;;;;29.23;19.13;;;;;;;;;;5060601;28;20037;-83
2022/04/16 09:07:11;;;;;;;24.58;17.08;;;;;;;;;;5048955;28;20112;-84
2022/04/16 09:09:38;;;;;;;26.20;17.98;;;;;;;;;;5043293;28;20063;-82
2022/04/16 09:12:04;;;;;;;24.75;16.65;;;;;;;;;;5044381;28;20005;-83
2022/04/16 09:14:37;;;;;;;23.85;17.48;;;;;;;;;;5041770;28;20056;-87
2022/04/16 09:17:09;;;;;;;21.77;16.67;;;;;;;;;;5040320;28;20088;-84
2022/04/16 09:19:35;;;;;;;20.48;15.38;;;;;;;;;;5055565;28;20393;-83
2022/04/16 09:22:01;;;;;;;22.65;16.10;;;;;;;;;;5057833;28;20357;-83
2022/04/16 09:24:27;;;;;;;22.38;15.40;;;;;;;;;;5037902;28;20037;-85
2022/04/16 09:26:53;;;;;;;20.73;15.02;;;;;;;;;;5055562;28;20033;-86
2022/04/16 09:29:19;;;;;;;21.10;15.93;;;;;;;;;;5034787;28;20029;-83
2022/04/16 09:31:46;;;;;;;17.30;13.13;;;;;;;;;;5033446;28;20025;-83
2022/04/16 09:34:17;;;;;;;18.65;13.52;;;;;;;;;;5035482;28;20029;-84
2022/04/16 09:36:46;;;;;;;17.92;13.48;;;;;;;;;;5051218;28;20025;-82
2022/04/16 09:39:13;;;;;;;19.17;12.23;;;;;;;;;;5050030;28;20033;-83
2022/04/16 09:41:40;;;;;;;16.58;12.43;;;;;;;;;;5052534;28;20040;-82
2022/04/16 09:44:17;;;;;;;21.10;10.90;;;;;;;;;;5035049;28;20025;-86
2022/04/16 09:46:44;;;;;;;13.27;10.05;;;;;;;;;;5072485;28;20032;-83
2022/04/16 09:49:11;;;;;;;13.55;9.98;;;;;;;;;;5042090;28;20033;-82
2022/04/16 09:51:37;;;;;;;12.95;9.70;;;;;;;;;;5052699;28;20469;-80
2022/04/16 09:54:04;;;;;;;15.73;9.88;;;;;;;;;;5053868;28;20091;-83
2022/04/16 09:56:32;;;;;;;13.48;8.82;;;;;;;;;;5068952;28;20059;-83
2022/04/16 09:58:59;;;;;;;12.95;8.65;;;;;;;;;;5059798;28;20033;-83
2022/04/16 10:01:25;;;;;;;12.50;9.23;;;;;;;;;;5053301;28;20029;-86
2022/04/16 10:03:54;;;;;;;10.30;7.47;;;;;;;;;;5057657;28;20025;-88
2022/04/16 10:06:21;;;;;;;9.93;6.97;;;;;;;;;;5059025;28;20033;-82
2022/04/16 10:08:51;;;;;;;10.30;7.60;;;;;;;;;;5070055;28;20173;-81
2022/04/16 10:11:41;;;;;;;11.32;8.23;;;;;;;;;;5068807;28;20498;-82
2022/04/16 10:14:10;;;;;;;11.07;7.60;;;;;;;;;;5059406;28;20087;-83
2022/04/16 10:16:51;;;;;;;8.82;5.90;;;;;;;;;;5061326;28;20028;-86
2022/04/16 10:19:17;;;;;;;8.57;5.97;;;;;;;;;;5063265;28;20017;-82
2022/04/16 10:21:43;;;;;;;11.95;6.90;;;;;;;;;;5080189;28;20032;-81
2022/04/16 10:24:09;;;;;;;12.25;7.60;;;;;;;;;;5062507;28;20068;-85
2022/04/16 10:26:39;;;;;;;10.13;6.82;;;;;;;;;;5082174;28;20073;-83
2022/04/16 10:29:05;;;;;;;11.55;7.93;;;;;;;;;;5080605;28;20490;-85
2022/04/16 10:31:33;;;;;;;11.25;7.70;;;;;;;;;;5078294;28;20032;-82
2022/04/16 10:34:02;;;;;;;9.00;5.72;;;;;;;;;;5063129;28;20013;-85
2022/04/16 10:36:38;;;;;;;10.70;6.57;;;;;;;;;;5061816;28;20067;-88
2022/04/16 10:39:17;;;;;;;9.20;6.20;;;;;;;;;;5061127;28;20045;-83
2022/04/16 10:42:12;;;;;;;8.32;6.72;;;;;;;;;;5061974;28;20071;-83
2022/04/16 10:44:47;;;;;;;11.90;7.60;;;;;;;;;;5061404;28;20048;-83
2022/04/16 10:47:14;;;;;;;9.52;6.78;;;;;;;;;;5100866;28;20141;-83
2022/04/16 10:49:41;;;;;;;9.52;6.75;;;;;;;;;;5045565;28;20041;-84
2022/04/16 10:52:18;;;;;;;8.50;6.10;;;;;;;;;;5061266;28;20025;-83
2022/04/16 10:54:47;;;;;;;9.85;6.20;;;;;;;;;;5040597;28;20147;-84
2022/04/16 10:57:20;;;;;;;8.95;5.95;;;;;;;;;;5038167;28;20095;-83
2022/04/16 10:59:46;;;;;;;8.20;5.35;;;;;;;;;;5037843;28;20382;-83
2022/04/16 11:02:28;;;;;;;7.15;5.32;;;;;;;;;;5049987;28;20493;-84
2022/04/16 11:05:07;;;;;;;8.02;5.13;;;;;;;;;;5042085;28;20067;-82
2022/04/16 11:07:35;;;;;;;8.40;5.45;;;;;;;;;;5036843;28;20022;-82
2022/04/16 11:10:01;;;;;;;10.80;5.65;;;;;;;;;;5036022;28;20047;-84
2022/04/16 11:12:29;;;;;;;11.40;5.50;;;;;;;;;;5036009;28;20021;-82
2022/04/16 11:14:55;;;;;;;10.95;5.72;;;;;;;;;;5027701;28;20026;-82
2022/04/16 11:17:22;;;;;;;8.93;6.38;;;;;;;;;;5022406;28;20099;-83
2022/04/16 11:20:05;;;;;;;8.27;6.65;;;;;;;;;;5038966;28;20031;-83
2022/04/16 11:22:32;;;;;;;9.57;5.80;;;;;;;;;;5035249;28;20037;-83
2022/04/16 11:24:59;;;;;;;12.15;6.30;;;;;;;;;;5050571;28;20033;-82
2022/04/16 11:36:06;;;;;;;7.90;6.55;;;;;;;;;;5059479;28;20126;-83
2022/04/16 11:38:33;;;;;;;8.38;6.68;;;;;;;;;;5062234;28;20041;-82
2022/04/16 11:41:00;;;;;;;9.20;6.45;;;;;;;;;;5059583;28;20124;-84
2022/04/16 11:43:31;;;;;;;8.43;6.32;;;;;;;;;;5063482;28;20017;-84
2022/04/16 11:45:59;;;;;;;7.72;5.85;;;;;;;;;;5030408;28;20120;-82
2022/04/16 11:48:25;;;;;;;7.45;5.68;;;;;;;;;;5049677;28;20052;-82
2022/04/16 11:50:51;;;;;;;9.68;6.30;;;;;;;;;;5051802;28;20028;-82
2022/04/16 11:53:18;;;;;;;8.60;5.85;;;;;;;;;;5049378;28;20059;-83
2022/04/16 11:55:48;;;;;;;8.63;6.35;;;;;;;;;;5060806;28;20071;-82
2022/04/16 11:58:14;;;;;;;9.50;6.38;;;;;;;;;;5047192;28;20024;-84
2022/04/16 12:00:48;;;;;;;8.35;5.88;;;;;;;;;;5048620;28;20041;-80
2022/04/16 12:03:15;;;;;;;8.98;6.35;;;;;;;;;;5044325;28;20383;-81
2022/04/16 12:05:42;;;;;;;12.32;6.93;;;;;;;;;;5052744;28;20017;-84
2022/04/16 12:08:09;;;;;;;12.57;7.40;;;;;;;;;;5069713;28;20025;-81
2022/04/16 12:10:36;;;;;;;10.68;7.63;;;;;;;;;;5068304;28;20097;-84
2022/04/16 12:13:09;;;;;;;10.93;7.15;;;;;;;;;;5076395;28;20031;-84
2022/04/16 12:15:39;;;;;;;9.65;7.47;;;;;;;;;;5075468;28;20057;-82
2022/04/16 12:18:12;;;;;;;10.32;7.18;;;;;;;;;;5063431;28;20055;-84
2022/04/16 12:20:48;;;;;;;12.07;6.90;;;;;;;;;;5062764;28;20025;-83
2022/04/16 12:23:24;;;;;;;9.30;5.93;;;;;;;;;;5057923;28;20123;-83
2022/04/16 12:25:50;;;;;;;8.52;6.38;;;;;;;;;;5057745;28;20033;-83
2022/04/16 12:28:17;;;;;;;11.27;7.20;;;;;;;;;;5043804;28;20112;-83
2022/04/16 12:30:51;;;;;;;9.45;7.22;;;;;;;;;;5065809;28;20543;-84
2022/04/16 12:33:22;;;;;;;9.40;7.53;;;;;;;;;;5063317;28;20040;-83
2022/04/16 12:35:48;;;;;;;11.18;6.60;;;;;;;;;;5054989;28;20482;-83
2022/04/16 12:38:17;;;;;;;9.25;6.80;;;;;;;;;;5060916;28;20044;-82
2022/04/16 12:40:43;;;;;;;8.48;6.20;;;;;;;;;;5064747;28;20135;-83
2022/04/16 12:43:09;;;;;;;8.02;5.57;;;;;;;;;;5052134;28;20016;-80
2022/04/16 12:45:35;;;;;;;9.38;6.53;;;;;;;;;;5060439;28;20029;-80
2022/04/16 12:48:02;;;;;;;9.43;6.65;;;;;;;;;;5056320;28;20081;-79
2022/04/16 12:50:31;;;;;;;11.20;6.50;;;;;;;;;;5060994;28;20029;-81
2022/04/16 12:52:59;;;;;;;10.93;5.97;;;;;;;;;;5061934;28;20036;-81
2022/04/16 12:55:25;;;;;;;7.22;5.40;;;;;;;;;;5074354;28;20294;-80
2022/04/16 12:57:51;;;;;;;13.20;5.88;;;;;;;;;;5079583;28;20047;-82
2022/04/16 13:00:18;;;;;;;7.50;5.50;;;;;;;;;;5068469;28;20040;-83
2022/04/16 13:02:46;;;;;;;10.77;6.00;;;;;;;;;;5069619;28;20473;-81
2022/04/16 13:05:13;;;;;;;10.02;5.75;;;;;;;;;;5077603;28;20080;-81
2022/04/16 13:07:39;;;;;;;7.35;5.75;;;;;;;;;;5074246;28;20033;-83
2022/04/16 13:10:06;;;;;;;8.75;6.03;;;;;;;;;;5075609;28;20067;-81
2022/04/16 13:12:32;;;;;;;7.80;5.25;;;;;;;;;;5076142;28;20045;-85
2022/04/16 13:14:58;;;;;;;8.00;5.53;;;;;;;;;;5056406;28;20056;-84
2022/04/16 13:17:24;;;;;;;7.07;5.45;;;;;;;;;;5074332;28;20063;-83
2022/04/16 13:19:50;;;;;;;7.93;5.07;;;;;;;;;;5071163;28;20143;-79
2022/04/16 13:22:16;;;;;;;8.07;5.20;;;;;;;;;;5065908;28;20040;-84
2022/04/16 13:24:42;;;;;;;8.15;5.32;;;;;;;;;;5050809;28;20100;-83
2022/04/16 13:27:08;;;;;;;8.25;5.57;;;;;;;;;;5069422;28;20020;-79
2022/04/16 13:29:34;;;;;;;11.38;6.22;;;;;;;;;;5061903;28;20537;-78
2022/04/16 13:32:04;;;;;;;8.82;5.18;;;;;;;;;;5062908;28;20020;-79
2022/04/16 13:34:30;;;;;;;8.10;5.22;;;;;;;;;;5055377;28;20112;-80
2022/04/16 13:36:57;;;;;;;6.82;4.80;;;;;;;;;;5058802;28;20090;-79
2022/04/16 13:42:08;;;;;;;8.20;5.05;;;;;;;;;;5059785;28;20043;-79
2022/04/16 13:44:34;;;;;;;7.28;4.85;;;;;;;;;;5069250;28;20047;-80
2022/04/16 13:47:01;;;;;;;6.00;4.55;;;;;;;;;;5060234;28;20236;-79
2022/04/16 13:49:27;;;;;;;7.05;5.10;;;;;;;;;;5063914;28;20041;-80
2022/04/16 13:51:53;;;;;;;7.05;5.30;;;;;;;;;;5066481;28;20065;-78
2022/04/16 13:54:20;;;;;;;5.75;3.78;;;;;;;;;;5060489;28;20039;-79
2022/04/16 13:56:46;;;;;;;6.32;4.40;;;;;;;;;;5068817;28;20037;-78
2022/04/16 13:59:12;;;;;;;9.35;4.30;;;;;;;;;;5068045;28;20036;-80
2022/04/16 14:01:38;;;;;;;7.97;4.70;;;;;;;;;;5067208;28;20029;-79
2022/04/16 14:04:04;;;;;;;7.95;4.45;;;;;;;;;;5074697;28;20024;-79
2022/04/16 14:06:32;;;;;;;8.25;3.97;;;;;;;;;;5069619;28;20151;-78
2022/04/16 14:08:59;;;;;;;7.78;4.15;;;;;;;;;;5053704;28;20029;-82
2022/04/16 14:11:26;;;;;;;5.90;4.03;;;;;;;;;;5071522;28;20032;-77
2022/04/16 14:13:52;;;;;;;6.82;4.10;;;;;;;;;;5063846;28;20104;-81
2022/04/16 14:16:19;;;;;;;5.88;3.75;;;;;;;;;;5065666;28;20021;-78
2022/04/16 14:18:46;;;;;;;5.93;3.78;;;;;;;;;;5059624;28;20033;-77
2022/04/16 14:21:12;;;;;;;5.63;3.65;;;;;;;;;;5059193;28;20051;-78
2022/04/16 14:23:38;;;;;;;7.22;3.90;;;;;;;;;;5057968;28;20035;-80
2022/04/16 14:26:05;;;;;;;8.00;3.78;;;;;;;;;;5056475;28;20478;-79
2022/04/16 14:28:34;;;;;;;7.35;3.58;;;;;;;;;;5056146;28;20093;-81
2022/04/16 14:31:00;;;;;;;7.82;3.30;;;;;;;;;;5055923;28;20037;-79
2022/04/16 14:33:27;;;;;;;7.32;3.95;;;;;;;;;;5063806;28;20041;-80
2022/04/16 14:35:54;;;;;;;7.13;4.50;;;;;;;;;;5063145;28;20040;-79
2022/04/16 14:38:21;;;;;;;5.65;4.20;;;;;;;;;;5064068;28;20140;-79
2022/04/16 14:41:13;;;;;;;6.28;3.50;;;;;;;;;;5068085;28;20040;-79
2022/04/16 14:43:48;;;;;;;4.10;3.35;;;;;;;;;;5067923;28;20027;-78
2022/04/16 14:46:14;;;;;;;4.63;2.90;;;;;;;;;;5066796;28;20031;-78
2022/04/16 14:48:40;;;;;;;4.38;2.90;;;;;;;;;;5050659;28;20025;-79
2022/04/16 14:51:06;;;;;;;7.20;3.00;;;;;;;;;;5067836;28;20029;-80